Hatteras, NC (27943)

2:11 PM EDT on August 28, 2016 (GMT -0400)
MARITIME | | Change Station

Elev 0 ft 47.50 °N, 27.70 °W | Updated 7 hours ago

Mostly Cloudy
Mostly Cloudy
79 °F
Feels Like 79 °F
N
6
Wind Variable Wind from NE
Gusts mph

Today
High -- | Low -- °F
--% Chance of Precip.
Yesterday
High -- | Low -- °F
Precip. -- in
Pressure 30.13 in
Visibility 10.0 miles
Clouds Few 2600 ft
Scattered Clouds 3400 ft
Mostly Cloudy 6000 ft
Dew Point 74 °F
Humidity 87%
Rainfall in
Snow Depth Not available.
6:32 AM 7:34 PM
Waning Crescent, 14% visible
METAR KHSE 281751Z AUTO VRB03KT 10SM FEW026 SCT034 BKN060 26/25 A3013 RMK AO2 RAB07E46 SLP203 P0005 60116 T02610250 10300 20244 58001 TSNO
Pressure 30.13 in
Visibility 10.0 miles
Clouds Few 2600 ft
Scattered Clouds 3400 ft
Mostly Cloudy 6000 ft
Dew Point 74 °F
Humidity 87%
Rainfall in
Snow Depth Not available.
6:32 AM 7:34 PM
Waning Crescent, 14% visible
METAR KHSE 281751Z AUTO VRB03KT 10SM FEW026 SCT034 BKN060 26/25 A3013 RMK AO2 RAB07E46 SLP203 P0005 60116 T02610250 10300 20244 58001 TSNO

10-Day Weather Forecast

Almanac

Astronomy

Aug. 28, 2016 Rise Set
Actual Time
Civil Twilight
Nautical Twilight
Astronomical Twilight
Moon
Length of Visible Light
Length of Day
Tomorrow will be .
, % of the Moon is Illuminated

Today's Extremes

State Highs State Lows

Community

WunderPhotos

Upload Photos

1,935,644 photos uploaded!

WunderBlog® & News

Nearby

Air Quality

  Air Quality AQ Index Pollutant
Not available.

Snow Depth

Station Depth Elevation

Earthquake Activity

City Distance Mag. Time & Date
Minimum magnitude displayed is 2.5.

Coastal Water Temperatures

Place Temperature

Stations

Nearby Weather Stations

Station Location Temp. Windchill Dew Point Humidity Wind Precip. Elev Updated Type
                   

Watches & Warnings

There are currently no watches in effect.